Time;durP1;ratioP1;P1;durP2;ratioP2;P2;SDS_P1;SDS_P2;PMS_P1;PMS_P2;Temp;Humidity;BMP_temperature;BMP_pressure;BME280_temperature;BME280_humidity;BME280_pressure;Samples;Min_cycle;Max_cycle;Signal;HPM_P1;HPM_P2
2022/02/22 00:00:31;;;;;;;;;;;;;;;18.50;53.57;101017.50;2050548;28;20246;-44
2022/02/22 00:01:32;;;;;;;;;;;;;;;18.49;53.58;101023.94;2059336;28;19995;-45
2022/02/22 00:02:32;;;;;;;;;;;;;;;18.48;53.50;101022.19;2059884;28;19921;-45
2022/02/22 00:03:36;;;;;;;;;;;;;;;18.46;53.69;101026.91;2059557;28;20395;-44
2022/02/22 00:04:43;;;;;;;;;;;;;;;18.46;53.72;101026.91;2057800;28;20463;-44
2022/02/22 00:05:43;;;;;;;;;;;;;;;18.45;53.77;101025.16;2060579;28;20033;-46
2022/02/22 00:06:44;;;;;;;;;;;;;;;18.44;53.65;101016.09;2058528;28;20427;-45
2022/02/22 00:07:44;;;;;;;;;;;;;;;18.47;53.69;101025.91;2059604;28;19940;-44
2022/02/22 00:08:44;;;;;;;;;;;;;;;18.45;53.66;101026.06;2057795;28;19918;-45
2022/02/22 00:09:44;;;;;;;;;;;;;;;18.43;53.64;101017.97;2056106;28;20296;-44
2022/02/22 00:10:45;;;;;;;;;;;;;;;18.44;53.79;101024.28;2059638;28;19917;-44
2022/02/22 00:11:45;;;;;;;;;;;;;;;18.43;53.59;101022.56;2057390;28;19922;-45
2022/02/22 00:12:45;;;;;;;;;;;;;;;18.41;53.59;101030.88;2059445;28;20292;-46
2022/02/22 00:13:47;;;;;;;;;;;;;;;18.42;53.83;101027.16;2051041;28;20383;-44
2022/02/22 00:14:48;;;;;;;;;;;;;;;18.41;53.85;101019.94;2050648;28;19953;-44
2022/02/22 00:15:48;;;;;;;;;;;;;;;18.41;53.64;101025.41;2058800;28;19917;-46
2022/02/22 00:16:54;;;;;;;;;;;;;;;18.40;53.66;101020.97;2059087;28;19921;-44
2022/02/22 00:17:54;;;;;;;;;;;;;;;18.40;53.68;101020.97;2053718;28;19925;-44
2022/02/22 00:18:54;;;;;;;;;;;;;;;18.39;53.76;101032.84;2058279;28;19922;-44
2022/02/22 00:19:55;;;;;;;;;;;;;;;18.39;53.77;101027.38;2060474;28;19918;-45
2022/02/22 00:20:55;;;;;;;;;;;;;;;18.39;53.82;101024.66;2056446;28;19917;-45
2022/02/22 00:21:56;;;;;;;;;;;;;;;18.39;53.69;101030.13;2060320;28;20051;-44
2022/02/22 00:22:56;;;;;;;;;;;;;;;18.38;53.80;101025.66;2057817;28;20020;-43
2022/02/22 00:23:57;;;;;;;;;;;;;;;18.38;53.73;101022.94;2059915;28;20377;-44
2022/02/22 00:24:57;;;;;;;;;;;;;;;18.39;53.62;101026.53;2060137;28;20059;-44
2022/02/22 00:25:57;;;;;;;;;;;;;;;18.39;53.74;101023.78;2058385;28;20306;-43
2022/02/22 00:26:58;;;;;;;;;;;;;;;18.38;53.83;101022.94;2059738;28;19937;-45
2022/02/22 00:27:58;;;;;;;;;;;;;;;18.38;53.68;101020.19;2056027;28;20214;-44
2022/02/22 00:28:58;;;;;;;;;;;;;;;18.37;53.68;101023.94;2058707;28;20838;-44
2022/02/22 00:29:59;;;;;;;;;;;;;;;18.38;53.80;101019.34;2059951;28;19948;-45
2022/02/22 00:30:59;;;;;;;;;;;;;;;18.37;53.79;101020.31;2057964;28;20118;-44
2022/02/22 00:31:59;;;;;;;;;;;;;;;18.36;53.69;101019.44;2059540;28;19925;-45
2022/02/22 00:33:00;;;;;;;;;;;;;;;18.36;53.87;101024.06;2058848;28;19925;-44
2022/02/22 00:34:00;;;;;;;;;;;;;;;18.36;53.77;101027.63;2057498;28;20684;-44
2022/02/22 00:35:00;;;;;;;;;;;;;;;18.34;53.73;101023.31;2055528;28;19926;-43
2022/02/22 00:36:00;;;;;;;;;;;;;;;18.36;53.85;101029.50;2050036;28;19934;-43
2022/02/22 00:37:01;;;;;;;;;;;;;;;18.34;53.72;101029.63;2051806;28;20341;-45
2022/02/22 00:38:01;;;;;;;;;;;;;;;18.35;53.95;101027.78;2055713;28;19926;-44
2022/02/22 00:39:03;;;;;;;;;;;;;;;18.34;53.97;101018.69;2057233;28;19948;-46
2022/02/22 00:40:04;;;;;;;;;;;;;;;18.34;53.86;101015.97;2057067;28;19960;-44
2022/02/22 00:41:04;;;;;;;;;;;;;;;18.35;53.85;101022.31;2057413;28;19914;-44
2022/02/22 00:42:05;;;;;;;;;;;;;;;18.36;53.94;101018.59;2058120;28;19928;-45
2022/02/22 00:43:06;;;;;;;;;;;;;;;18.35;53.87;101015.00;2058605;28;20257;-44
2022/02/22 00:44:07;;;;;;;;;;;;;;;18.35;53.85;101020.47;2055589;28;19967;-44
2022/02/22 00:45:08;;;;;;;;;;;;;;;18.34;53.90;101010.50;2048702;28;19929;-44
2022/02/22 00:46:08;;;;;;;;;;;;;;;18.35;53.79;101019.59;2051696;28;20016;-44
2022/02/22 00:47:09;;;;;;;;;;;;;;;18.36;53.85;101016.72;2056513;28;20765;-44
2022/02/22 00:48:09;;;;;;;;;;;;;;;18.35;53.89;101006.81;2059478;28;19926;-45
2022/02/22 00:49:09;;;;;;;;;;;;;;;18.34;53.82;101021.44;2058160;28;19937;-46
2022/02/22 00:50:10;;;;;;;;;;;;;;;18.33;53.89;101016.97;2061895;28;19932;-44
2022/02/22 00:51:12;;;;;;;;;;;;;;;18.35;53.85;101008.69;2059546;28;19918;-45
2022/02/22 00:52:12;;;;;;;;;;;;;;;18.36;53.71;101003.06;2060196;28;20358;-44
2022/02/22 00:53:12;;;;;;;;;;;;;;;18.34;53.77;101013.25;2048249;28;19953;-45
2022/02/22 00:54:12;;;;;;;;;;;;;;;18.36;53.75;101014.00;2052542;28;19925;-44
2022/02/22 00:55:13;;;;;;;;;;;;;;;18.37;53.83;101014.84;2051591;28;19941;-45
2022/02/22 00:56:13;;;;;;;;;;;;;;;18.36;53.60;101011.25;2053111;28;20691;-44
2022/02/22 00:57:13;;;;;;;;;;;;;;;18.36;53.73;101005.81;2059264;28;20605;-44
2022/02/22 00:58:14;;;;;;;;;;;;;;;18.37;53.71;101013.03;2060727;28;20068;-44
2022/02/22 00:59:14;;;;;;;;;;;;;;;18.37;53.75;101013.03;2060614;28;19914;-45
2022/02/22 01:00:14;;;;;;;;;;;;;;;18.38;53.80;101009.28;2062744;28;19921;-46
2022/02/22 01:01:16;;;;;;;;;;;;;;;18.36;53.84;101011.25;2060277;28;20486;-53
2022/02/22 01:02:17;;;;;;;;;;;;;;;18.35;53.77;101009.53;2060562;28;19924;-44
2022/02/22 01:03:17;;;;;;;;;;;;;;;18.37;53.74;101009.41;2059335;28;20527;-45
2022/02/22 01:04:17;;;;;;;;;;;;;;;18.37;53.77;101015.75;2061525;28;19979;-48
2022/02/22 01:05:18;;;;;;;;;;;;;;;18.38;53.82;101012.00;2059714;28;19941;-44
2022/02/22 01:06:18;;;;;;;;;;;;;;;18.38;53.80;101008.44;2060340;28;20325;-44
2022/02/22 01:07:20;;;;;;;;;;;;;;;18.37;53.77;101013.03;2062094;28;19921;-44
2022/02/22 01:08:20;;;;;;;;;;;;;;;18.36;53.69;101011.25;2059254;28;19922;-44
2022/02/22 01:09:21;;;;;;;;;;;;;;;18.38;53.65;101009.28;2060148;28;19968;-45
2022/02/22 01:10:22;;;;;;;;;;;;;;;18.38;53.65;101012.00;2059865;28;19924;-44
2022/02/22 01:11:22;;;;;;;;;;;;;;;18.36;53.72;101011.25;2059400;28;19952;-45
2022/02/22 01:12:22;;;;;;;;;;;;;;;18.37;53.79;101013.03;2059864;28;20308;-45
2022/02/22 01:13:23;;;;;;;;;;;;;;;18.37;53.84;101013.03;2058168;28;19988;-44
2022/02/22 01:14:23;;;;;;;;;;;;;;;18.36;53.72;101000.34;2060271;28;19925;-48
2022/02/22 01:15:24;;;;;;;;;;;;;;;18.37;53.74;101012.13;2060307;28;20316;-45
2022/02/22 01:16:24;;;;;;;;;;;;;;;18.36;53.84;101011.25;2051675;28;19929;-45
2022/02/22 01:17:24;;;;;;;;;;;;;;;18.37;53.91;101012.13;2051655;28;19921;-47
2022/02/22 01:18:25;;;;;;;;;;;;;;;18.36;53.86;101016.72;2061000;28;19988;-44
2022/02/22 01:19:25;;;;;;;;;;;;;;;18.37;53.96;101020.31;2060463;28;19928;-45
2022/02/22 01:20:25;;;;;;;;;;;;;;;18.38;53.63;101020.19;2065315;28;19921;-44
2022/02/22 01:21:26;;;;;;;;;;;;;;;18.37;53.93;101015.75;2057235;28;19922;-44
2022/02/22 01:22:26;;;;;;;;;;;;;;;18.36;53.68;101005.81;2058781;28;20376;-45
2022/02/22 01:23:26;;;;;;;;;;;;;;;18.37;53.71;101007.56;2064080;28;20221;-45
2022/02/22 01:24:27;;;;;;;;;;;;;;;18.37;53.78;101013.03;2060663;28;19971;-44
2022/02/22 01:25:28;;;;;;;;;;;;;;;18.37;53.94;101007.56;2058996;28;19924;-44
2022/02/22 01:26:29;;;;;;;;;;;;;;;18.36;53.66;101008.53;2060430;28;19918;-46
2022/02/22 01:27:29;;;;;;;;;;;;;;;18.37;53.79;101003.94;2060215;28;20694;-44
2022/02/22 01:28:29;;;;;;;;;;;;;;;18.36;53.69;101005.81;2060567;28;19914;-44
2022/02/22 01:29:30;;;;;;;;;;;;;;;18.36;53.84;101000.34;2057761;28;20387;-46
2022/02/22 01:30:30;;;;;;;;;;;;;;;18.35;53.73;100998.63;2060109;28;20446;-44
2022/02/22 01:31:30;;;;;;;;;;;;;;;18.34;53.69;100994.13;2059296;28;20159;-45
2022/02/22 01:32:31;;;;;;;;;;;;;;;18.35;53.70;100993.16;2059290;28;19944;-44
2022/02/22 01:33:31;;;;;;;;;;;;;;;18.36;53.76;100996.75;2058476;28;19921;-44
2022/02/22 01:34:31;;;;;;;;;;;;;;;18.36;53.86;100994.03;2057904;28;19917;-46
2022/02/22 01:35:32;;;;;;;;;;;;;;;18.35;53.85;100984.97;2059654;28;20248;-45
2022/02/22 01:36:32;;;;;;;;;;;;;;;18.33;53.71;100989.69;2059835;28;19999;-45
2022/02/22 01:37:33;;;;;;;;;;;;;;;18.32;53.96;100992.53;2059154;28;20099;-44
2022/02/22 01:38:33;;;;;;;;;;;;;;;18.31;53.90;100991.66;2060874;28;19928;-44
2022/02/22 01:39:33;;;;;;;;;;;;;;;18.32;53.77;100992.53;2060532;28;20392;-45
2022/02/22 01:40:34;;;;;;;;;;;;;;;18.31;54.09;100994.38;2060363;28;20336;-45
2022/02/22 01:41:38;;;;;;;;;;;;;;;18.30;54.07;100989.94;2059471;28;19917;-44
2022/02/22 01:42:38;;;;;;;;;;;;;;;18.30;53.93;100995.41;2059524;28;20042;-44
2022/02/22 01:43:39;;;;;;;;;;;;;;;18.29;54.02;100988.19;2059348;28;19930;-45
2022/02/22 01:44:40;;;;;;;;;;;;;;;18.29;53.95;100999.09;2061049;28;19921;-45
2022/02/22 01:45:40;;;;;;;;;;;;;;;18.28;54.01;100994.66;2059774;28;19921;-46
2022/02/22 01:46:41;;;;;;;;;;;;;;;18.29;54.13;100999.09;2061182;28;20249;-44
2022/02/22 01:47:41;;;;;;;;;;;;;;;18.31;53.94;101007.19;2058515;28;19922;-45
2022/02/22 01:48:42;;;;;;;;;;;;;;;18.29;53.99;100998.22;2060083;28;19921;-45
2022/02/22 01:49:43;;;;;;;;;;;;;;;18.29;54.09;100999.09;2060741;28;19917;-45
2022/02/22 01:50:43;;;;;;;;;;;;;;;18.29;54.07;100999.09;2057072;28;19917;-45
2022/02/22 01:51:43;;;;;;;;;;;;;;;18.30;53.96;101000.84;2060352;28;20316;-45
2022/02/22 01:52:44;;;;;;;;;;;;;;;18.29;53.86;101004.56;2060610;28;20011;-47
2022/02/22 01:53:44;;;;;;;;;;;;;;;18.30;53.89;101006.31;2061124;28;19929;-45
2022/02/22 01:54:46;;;;;;;;;;;;;;;18.29;54.08;101004.56;2064299;28;20677;-44
2022/02/22 01:55:48;;;;;;;;;;;;;;;18.29;54.09;101004.56;2056991;28;19921;-44
2022/02/22 01:56:48;;;;;;;;;;;;;;;18.32;53.88;101006.16;2057842;28;19948;-45
2022/02/22 01:57:48;;;;;;;;;;;;;;;18.31;54.01;101008.03;2059963;28;20352;-46
2022/02/22 01:58:49;;;;;;;;;;;;;;;18.31;53.99;101002.56;2058326;28;19921;-44
2022/02/22 01:59:49;;;;;;;;;;;;;;;18.32;53.99;101015.22;2057611;28;19917;-45
2022/02/22 02:00:50;;;;;;;;;;;;;;;18.32;53.79;101009.75;2060345;28;20340;-44
2022/02/22 02:01:50;;;;;;;;;;;;;;;18.31;53.88;101005.31;2058855;28;19929;-44
2022/02/22 02:02:51;;;;;;;;;;;;;;;18.34;53.89;101006.91;2058042;28;19921;-45
2022/02/22 02:03:53;;;;;;;;;;;;;;;18.34;53.77;100999.59;2060872;28;19922;-45
2022/02/22 02:04:53;;;;;;;;;;;;;;;18.34;53.99;101007.78;2060169;28;20347;-43
2022/02/22 02:05:54;;;;;;;;;;;;;;;18.34;53.79;101001.47;2059130;28;20012;-44
2022/02/22 02:06:54;;;;;;;;;;;;;;;18.35;53.88;101015.00;2058260;28;20566;-43
2022/02/22 02:07:55;;;;;;;;;;;;;;;18.33;53.96;101000.59;2058486;28;20221;-43
2022/02/22 02:08:55;;;;;;;;;;;;;;;18.34;53.71;101007.78;2059693;28;19981;-43
2022/02/22 02:09:56;;;;;;;;;;;;;;;18.33;53.83;101006.06;2062214;28;20240;-44
2022/02/22 02:10:56;;;;;;;;;;;;;;;18.33;53.95;101005.19;2055977;28;19925;-45
2022/02/22 02:11:58;;;;;;;;;;;;;;;18.34;53.83;101001.47;2059305;28;20407;-44
2022/02/22 02:12:58;;;;;;;;;;;;;;;18.33;54.08;101006.06;2060430;28;19925;-45
2022/02/22 02:13:59;;;;;;;;;;;;;;;18.33;54.01;100999.75;2059337;28;19976;-43
2022/02/22 02:14:59;;;;;;;;;;;;;;;18.32;53.95;101004.31;2061336;28;19921;-44
2022/02/22 02:15:59;;;;;;;;;;;;;;;18.33;53.84;101000.59;2059045;28;19921;-44
2022/02/22 02:16:59;;;;;;;;;;;;;;;18.34;53.83;100999.59;2060169;28;20679;-43
2022/02/22 02:18:00;;;;;;;;;;;;;;;18.34;53.87;100999.59;2060558;28;19968;-45
2022/02/22 02:19:00;;;;;;;;;;;;;;;18.34;53.94;101001.47;2058482;28;19991;-44
2022/02/22 02:20:02;;;;;;;;;;;;;;;18.33;53.97;100994.28;2060865;28;20275;-45
2022/02/22 02:21:03;;;;;;;;;;;;;;;18.33;54.05;100999.75;2057039;28;19921;-45
2022/02/22 02:22:03;;;;;;;;;;;;;;;18.33;53.93;101005.19;2060132;28;19925;-45
2022/02/22 02:23:04;;;;;;;;;;;;;;;18.33;54.06;101005.19;2049694;28;20366;-44
2022/02/22 02:24:23;;;;;;;;;;;;;;;18.33;53.89;101000.59;2052072;28;19922;-46
2022/02/22 02:25:24;;;;;;;;;;;;;;;18.32;53.88;100998.84;2060822;28;20036;-45
2022/02/22 02:26:25;;;;;;;;;;;;;;;18.32;53.98;101003.44;2059864;28;19917;-45
2022/02/22 02:27:25;;;;;;;;;;;;;;;18.32;53.99;101003.44;2056079;28;20260;-45
2022/02/22 02:28:25;;;;;;;;;;;;;;;18.31;54.05;101002.56;2060366;28;20071;-46
2022/02/22 02:29:27;;;;;;;;;;;;;;;18.30;53.99;100995.41;2058563;28;19929;-46
2022/02/22 02:30:29;;;;;;;;;;;;;;;18.31;53.80;100997.13;2060756;28;20712;-45
2022/02/22 02:31:29;;;;;;;;;;;;;;;18.31;54.01;100991.66;2058957;28;19960;-44
2022/02/22 02:32:30;;;;;;;;;;;;;;;18.32;54.06;100998.84;2059139;28;20324;-44
2022/02/22 02:33:30;;;;;;;;;;;;;;;18.32;53.89;100997.97;2059624;28;19965;-44
2022/02/22 02:34:30;;;;;;;;;;;;;;;18.32;53.93;100998.84;2055352;28;20358;-45
2022/02/22 02:35:32;;;;;;;;;;;;;;;18.31;53.89;100999.84;2051347;28;19961;-46
2022/02/22 02:36:37;;;;;;;;;;;;;;;18.31;53.75;100999.84;2049131;28;19926;-44
2022/02/22 02:37:38;;;;;;;;;;;;;;;18.30;54.06;101000.84;2054454;28;19921;-45
2022/02/22 02:38:38;;;;;;;;;;;;;;;18.29;54.07;101003.69;2059519;28;19921;-44
2022/02/22 02:39:39;;;;;;;;;;;;;;;18.28;54.05;100997.38;2059066;28;19925;-43
2022/02/22 02:40:39;;;;;;;;;;;;;;;18.28;54.02;100993.78;2059025;28;19914;-44
2022/02/22 02:41:40;;;;;;;;;;;;;;;18.27;54.07;101000.22;2060078;28;19922;-43
2022/02/22 02:42:41;;;;;;;;;;;;;;;18.26;54.10;100999.34;2058073;28;19922;-43
2022/02/22 02:43:42;;;;;;;;;;;;;;;18.26;54.24;100993.03;2060330;28;20428;-45
2022/02/22 02:44:43;;;;;;;;;;;;;;;18.26;54.13;100999.34;2057924;28;20248;-44
2022/02/22 02:45:44;;;;;;;;;;;;;;;18.25;54.16;100992.16;2056147;28;20344;-44
2022/02/22 02:46:44;;;;;;;;;;;;;;;18.27;54.11;100992.03;2058427;28;19924;-44
2022/02/22 02:47:45;;;;;;;;;;;;;;;18.26;54.06;100993.91;2059793;28;19952;-44
2022/02/22 02:48:45;;;;;;;;;;;;;;;18.27;54.15;100992.03;2057268;28;19932;-44
2022/02/22 02:49:45;;;;;;;;;;;;;;;18.27;54.19;100992.03;2057609;28;20001;-44
2022/02/22 02:50:45;;;;;;;;;;;;;;;18.26;54.18;100991.16;2054800;28;20976;-43
2022/02/22 02:51:46;;;;;;;;;;;;;;;18.26;54.11;100993.91;2058812;28;19917;-45
2022/02/22 02:52:47;;;;;;;;;;;;;;;18.26;54.11;100999.34;2058912;28;19926;-44
2022/02/22 02:53:48;;;;;;;;;;;;;;;18.26;54.23;100995.75;2056355;28;19918;-44
2022/02/22 02:54:48;;;;;;;;;;;;;;;18.27;54.01;100997.47;2057787;28;20407;-44
2022/02/22 02:55:48;;;;;;;;;;;;;;;18.26;54.10;100993.91;2059933;28;19965;-44
2022/02/22 02:56:48;;;;;;;;;;;;;;;18.28;54.03;101001.97;2060167;28;19933;-45
2022/02/22 02:57:49;;;;;;;;;;;;;;;18.27;54.11;100997.47;2057219;28;19926;-44
2022/02/22 02:58:51;;;;;;;;;;;;;;;18.28;54.29;101001.97;2060596;28;20225;-44
2022/02/22 02:59:51;;;;;;;;;;;;;;;18.27;54.04;101000.22;2060331;28;19921;-45
2022/02/22 03:00:51;;;;;;;;;;;;;;;18.28;54.17;100997.38;2050026;28;20111;-44
2022/02/22 03:01:52;;;;;;;;;;;;;;;18.29;54.15;100999.09;2048765;28;19922;-45
2022/02/22 03:02:52;;;;;;;;;;;;;;;18.29;54.10;101004.56;2060311;28;19932;-45
2022/02/22 03:03:53;;;;;;;;;;;;;;;18.29;54.17;100999.09;2057752;28;19932;-43
2022/02/22 03:04:58;;;;;;;;;;;;;;;18.30;53.99;101006.31;2063796;28;19925;-43
2022/02/22 03:05:59;;;;;;;;;;;;;;;18.30;54.10;101017.22;2054609;28;19957;-43
2022/02/22 03:06:59;;;;;;;;;;;;;;;18.29;54.08;101004.56;2059378;28;19918;-44
2022/02/22 03:07:59;;;;;;;;;;;;;;;18.31;54.13;101008.03;2058822;28;19960;-44
2022/02/22 03:09:00;;;;;;;;;;;;;;;18.31;54.18;101008.03;2059863;28;19925;-44
2022/02/22 03:10:01;;;;;;;;;;;;;;;18.31;54.16;101005.31;2058763;28;19976;-44
2022/02/22 03:11:01;;;;;;;;;;;;;;;18.31;54.02;101008.03;2059876;28;19929;-43
2022/02/22 03:12:01;;;;;;;;;;;;;;;18.31;54.17;101001.72;2059054;28;20007;-44
2022/02/22 03:13:02;;;;;;;;;;;;;;;18.30;54.01;101003.59;2059080;28;19917;-44
2022/02/22 03:14:02;;;;;;;;;;;;;;;18.29;54.26;101007.28;2057112;28;19921;-44
2022/02/22 03:15:03;;;;;;;;;;;;;;;18.29;54.26;101001.81;2059033;28;19960;-45
2022/02/22 03:16:04;;;;;;;;;;;;;;;18.29;54.19;101004.56;2060040;28;19922;-43
2022/02/22 03:17:04;;;;;;;;;;;;;;;18.31;54.21;101001.72;2059869;28;20027;-44
2022/02/22 03:18:04;;;;;;;;;;;;;;;18.31;54.17;101002.56;2058613;28;20597;-45
2022/02/22 03:19:05;;;;;;;;;;;;;;;18.29;54.05;100999.09;2059203;28;19917;-44
2022/02/22 03:20:05;;;;;;;;;;;;;;;18.30;53.96;100998.13;2059910;28;20295;-44
2022/02/22 03:21:06;;;;;;;;;;;;;;;18.28;54.28;100996.50;2059113;28;19913;-44
2022/02/22 03:22:06;;;;;;;;;;;;;;;18.31;54.01;101001.72;2059763;28;20275;-44
2022/02/22 03:23:06;;;;;;;;;;;;;;;18.29;54.24;100993.63;2059006;28;20240;-44
2022/02/22 03:24:07;;;;;;;;;;;;;;;18.30;54.22;100995.41;2063455;28;20330;-45
2022/02/22 03:25:07;;;;;;;;;;;;;;;18.30;54.08;100995.41;2056697;28;19953;-44
2022/02/22 03:26:08;;;;;;;;;;;;;;;18.30;54.16;101000.84;2059454;28;19929;-45
2022/02/22 03:27:08;;;;;;;;;;;;;;;18.30;54.26;101000.84;2059836;28;20015;-45
2022/02/22 03:28:08;;;;;;;;;;;;;;;18.29;54.19;101000.97;2058245;28;20336;-44
2022/02/22 03:29:09;;;;;;;;;;;;;;;18.30;54.15;101003.59;2058969;28;19924;-45
2022/02/22 03:30:09;;;;;;;;;;;;;;;18.32;54.24;101003.44;2059982;28;20286;-44
2022/02/22 03:31:09;;;;;;;;;;;;;;;18.33;54.23;101013.38;2060266;28;19921;-45
2022/02/22 03:32:10;;;;;;;;;;;;;;;18.33;54.15;101010.66;2059926;28;19921;-43
2022/02/22 03:33:10;;;;;;;;;;;;;;;18.33;54.17;101006.06;2060071;28;19929;-44
2022/02/22 03:34:10;;;;;;;;;;;;;;;18.33;54.01;101008.78;2063274;28;19924;-45
2022/02/22 03:35:11;;;;;;;;;;;;;;;18.33;54.08;101000.59;2062980;28;19977;-45
2022/02/22 03:36:11;;;;;;;;;;;;;;;18.34;53.95;101002.31;2057009;28;20198;-45
2022/02/22 03:37:11;;;;;;;;;;;;;;;18.34;54.08;100996.00;2059401;28;19929;-44
2022/02/22 03:38:12;;;;;;;;;;;;;;;18.34;54.02;101002.31;2059488;28;20325;-45
2022/02/22 03:39:12;;;;;;;;;;;;;;;18.35;54.05;101003.22;2058627;28;19925;-45
2022/02/22 03:40:12;;;;;;;;;;;;;;;18.33;54.05;101003.34;2057371;28;20056;-45
2022/02/22 03:41:13;;;;;;;;;;;;;;;18.34;54.06;101001.47;2059451;28;20028;-44
2022/02/22 03:42:13;;;;;;;;;;;;;;;18.33;54.06;100995.13;2058556;28;20236;-44
2022/02/22 03:43:14;;;;;;;;;;;;;;;18.31;54.21;101002.56;2050698;28;19922;-44
2022/02/22 03:44:14;;;;;;;;;;;;;;;18.31;54.09;100997.13;2052512;28;20523;-44
2022/02/22 03:45:15;;;;;;;;;;;;;;;18.31;54.13;100999.84;2059295;28;19922;-44
2022/02/22 03:46:16;;;;;;;;;;;;;;;18.32;54.01;101001.56;2060342;28;19925;-45
2022/02/22 03:47:16;;;;;;;;;;;;;;;18.31;54.22;100996.25;2059088;28;19922;-44
2022/02/22 03:48:16;;;;;;;;;;;;;;;18.32;54.10;101003.44;2060281;28;20495;-44
2022/02/22 03:49:17;;;;;;;;;;;;;;;18.31;54.03;100999.84;2054658;28;19933;-44
2022/02/22 03:50:17;;;;;;;;;;;;;;;18.29;54.07;100999.09;2057204;28;20752;-44
2022/02/22 03:51:17;;;;;;;;;;;;;;;18.29;54.25;100999.09;2060088;28;19944;-45
2022/02/22 03:52:18;;;;;;;;;;;;;;;18.29;54.13;101009.16;2059557;28;20040;-45
2022/02/22 03:53:18;;;;;;;;;;;;;;;18.28;54.16;101002.84;2057277;28;19921;-44
2022/02/22 03:54:18;;;;;;;;;;;;;;;18.27;54.09;101006.53;2060129;28;19914;-44
2022/02/22 03:55:19;;;;;;;;;;;;;;;18.28;54.11;101007.44;2057992;28;19921;-45
2022/02/22 03:56:19;;;;;;;;;;;;;;;18.25;54.28;101000.34;2058937;28;19925;-44
2022/02/22 03:57:20;;;;;;;;;;;;;;;18.26;54.20;101007.53;2059595;28;20293;-44
2022/02/22 03:58:20;;;;;;;;;;;;;;;18.26;54.13;101010.28;2058909;28;19929;-45
2022/02/22 03:59:20;;;;;;;;;;;;;;;18.26;54.29;101004.81;2059961;28;20713;-44
2022/02/22 04:00:22;;;;;;;;;;;;;;;18.25;54.36;101003.09;2060646;28;19932;-44
2022/02/22 04:01:22;;;;;;;;;;;;;;;18.26;54.29;101004.81;2053342;28;21514;-44
2022/02/22 04:02:22;;;;;;;;;;;;;;;18.27;54.18;101003.81;2059716;28;20249;-45
2022/02/22 04:03:22;;;;;;;;;;;;;;;18.27;54.16;101006.53;2058555;28;20180;-44
2022/02/22 04:04:23;;;;;;;;;;;;;;;18.26;54.23;101004.81;2059637;28;19913;-45
2022/02/22 04:05:23;;;;;;;;;;;;;;;18.27;54.10;101003.81;2058279;28;20693;-44
2022/02/22 04:06:23;;;;;;;;;;;;;;;18.27;54.28;101006.53;2058615;28;19928;-44
2022/02/22 04:07:23;;;;;;;;;;;;;;;18.27;54.16;101003.81;2055723;28;20015;-44
2022/02/22 04:08:24;;;;;;;;;;;;;;;18.27;54.22;101009.25;2055691;28;19922;-44
2022/02/22 04:09:24;;;;;;;;;;;;;;;18.28;54.17;101011.03;2058925;28;19936;-44
2022/02/22 04:10:25;;;;;;;;;;;;;;;18.28;54.16;101002.84;2058126;28;19967;-44
2022/02/22 04:11:25;;;;;;;;;;;;;;;18.28;54.05;101008.28;2058632;28;19910;-44
2022/02/22 04:12:25;;;;;;;;;;;;;;;18.28;54.19;101008.28;2059913;28;20770;-45
2022/02/22 04:13:25;;;;;;;;;;;;;;;18.28;54.13;101013.75;2058782;28;19991;-45
2022/02/22 04:14:26;;;;;;;;;;;;;;;18.29;54.18;101014.63;2050628;28;19930;-44
2022/02/22 04:15:26;;;;;;;;;;;;;;;18.28;54.39;101013.75;2049275;28;20230;-44
2022/02/22 04:16:26;;;;;;;;;;;;;;;18.28;54.20;101013.75;2056701;28;20351;-44
2022/02/22 04:17:27;;;;;;;;;;;;;;;18.28;54.12;101019.22;2058823;28;20467;-44
2022/02/22 04:18:27;;;;;;;;;;;;;;;18.27;54.38;101017.44;2050786;28;19980;-45
2022/02/22 04:19:27;;;;;;;;;;;;;;;18.29;54.18;101020.94;2051838;28;19917;-45
2022/02/22 04:20:28;;;;;;;;;;;;;;;18.29;54.27;101025.53;2058989;28;20220;-44
2022/02/22 04:21:29;;;;;;;;;;;;;;;18.28;54.21;101021.94;2061039;28;19925;-45
2022/02/22 04:22:29;;;;;;;;;;;;;;;18.28;54.21;101021.94;2058734;28;19921;-44
2022/02/22 04:23:29;;;;;;;;;;;;;;;18.28;54.43;101019.22;2059109;28;19928;-44
2022/02/22 04:24:30;;;;;;;;;;;;;;;18.28;54.42;101024.66;2061253;28;19975;-44
2022/02/22 04:25:30;;;;;;;;;;;;;;;18.29;54.30;101025.53;2059939;28;19960;-44
2022/02/22 04:26:30;;;;;;;;;;;;;;;18.28;54.45;101030.13;2061637;28;19925;-44
2022/02/22 04:27:31;;;;;;;;;;;;;;;18.29;54.16;101026.38;2060476;28;20283;-45
2022/02/22 04:28:31;;;;;;;;;;;;;;;18.29;54.19;101025.53;2061541;28;20013;-44
2022/02/22 04:29:32;;;;;;;;;;;;;;;18.29;54.35;101025.53;2058745;28;19921;-44
2022/02/22 04:30:32;;;;;;;;;;;;;;;18.29;54.27;101025.53;2059785;28;21075;-44
2022/02/22 04:31:38;;;;;;;;;;;;;;;18.29;54.42;101026.38;2062002;28;19928;-44
2022/02/22 04:32:38;;;;;;;;;;;;;;;18.31;54.34;101026.28;2060272;28;19921;-44
2022/02/22 04:33:39;;;;;;;;;;;;;;;18.30;54.24;101017.22;2059637;28;19975;-45
2022/02/22 04:34:39;;;;;;;;;;;;;;;18.31;54.22;101029.88;2060985;28;19925;-45
2022/02/22 04:35:40;;;;;;;;;;;;;;;18.32;54.37;101023.41;2059656;28;19928;-45
2022/02/22 04:36:40;;;;;;;;;;;;;;;18.31;54.14;101018.94;2060876;28;19936;-44
2022/02/22 04:37:40;;;;;;;;;;;;;;;18.32;54.29;101023.41;2060984;28;19948;-44
2022/02/22 04:38:41;;;;;;;;;;;;;;;18.32;54.22;101023.41;2061030;28;20547;-44
2022/02/22 04:39:42;;;;;;;;;;;;;;;18.32;54.25;101026.13;2060036;28;19925;-46
2022/02/22 04:40:42;;;;;;;;;;;;;;;18.32;54.18;101026.13;2060345;28;19913;-44
2022/02/22 04:41:43;;;;;;;;;;;;;;;18.32;54.15;101028.00;2060936;28;20349;-44
2022/02/22 04:42:46;;;;;;;;;;;;;;;18.32;54.33;101025.28;2061012;28;19917;-44
2022/02/22 04:43:47;;;;;;;;;;;;;;;18.32;54.23;101037.06;2060129;28;19918;-44
2022/02/22 04:44:47;;;;;;;;;;;;;;;18.32;54.17;101031.59;2061130;28;20340;-45
2022/02/22 04:45:47;;;;;;;;;;;;;;;18.32;54.35;101028.00;2060401;28;20274;-44
2022/02/22 04:46:47;;;;;;;;;;;;;;;18.31;54.31;101024.41;2060519;28;19948;-44
2022/02/22 04:47:48;;;;;;;;;;;;;;;18.31;54.35;101026.28;2059886;28;19918;-44
2022/02/22 04:48:48;;;;;;;;;;;;;;;18.31;54.38;101027.13;2057686;28;20845;-43
2022/02/22 04:49:48;;;;;;;;;;;;;;;18.29;54.43;101020.94;2060051;28;19925;-44
2022/02/22 04:50:49;;;;;;;;;;;;;;;18.31;54.14;101029.88;2061470;28;19921;-45
2022/02/22 04:51:49;;;;;;;;;;;;;;;18.31;54.23;101032.59;2062285;28;19960;-44
2022/02/22 04:52:49;;;;;;;;;;;;;;;18.31;54.32;101023.56;2060731;28;20314;-43
2022/02/22 04:53:50;;;;;;;;;;;;;;;18.30;54.34;101033.59;2052202;28;19918;-44
2022/02/22 04:54:50;;;;;;;;;;;;;;;18.29;54.47;101034.59;2051311;28;19929;-44
2022/02/22 04:55:51;;;;;;;;;;;;;;;18.28;54.43;101032.84;2061208;28;19925;-44
2022/02/22 04:56:51;;;;;;;;;;;;;;;18.28;54.47;101024.66;2058517;28;20033;-44
2022/02/22 04:57:51;;;;;;;;;;;;;;;18.27;54.35;101025.63;2059547;28;20248;-43
2022/02/22 04:58:52;;;;;;;;;;;;;;;18.26;54.24;101026.66;2061175;28;19922;-44
2022/02/22 04:59:52;;;;;;;;;;;;;;;18.27;54.56;101033.81;2056862;28;19925;-44
2022/02/22 05:00:53;;;;;;;;;;;;;;;18.26;54.24;101026.66;2062340;28;19922;-44
2022/02/22 05:01:53;;;;;;;;;;;;;;;18.27;54.43;101028.38;2061535;28;19921;-44
2022/02/22 05:02:53;;;;;;;;;;;;;;;18.27;54.48;101027.50;2050093;28;19922;-45
2022/02/22 05:03:54;;;;;;;;;;;;;;;18.27;54.36;101027.50;2050705;28;20284;-44
2022/02/22 05:04:54;;;;;;;;;;;;;;;18.28;54.25;101029.25;2056244;28;19944;-44
2022/02/22 05:05:54;;;;;;;;;;;;;;;18.29;54.30;101031.00;2058184;28;19920;-43
2022/02/22 05:06:55;;;;;;;;;;;;;;;18.29;54.35;101029.13;2056273;28;19945;-44
2022/02/22 05:07:56;;;;;;;;;;;;;;;18.28;54.36;101032.84;2049768;28;19985;-46
2022/02/22 05:08:57;;;;;;;;;;;;;;;18.28;54.34;101041.03;2051423;28;19917;-45
2022/02/22 05:09:57;;;;;;;;;;;;;;;18.28;54.45;101034.72;2059115;28;20518;-44
2022/02/22 05:10:57;;;;;;;;;;;;;;;18.28;54.45;101032.84;2060798;28;19924;-44